»·PEaware :: WAT306 KDUG-KDVT

WAT306 :: KDUG-KDVT

FLIGHT INFORMATION

Flight Status: Arrived
Operator:
Walker Air Transport
More flights by this operator :: More flights under this callsign
Pilot: Ethan S. (29221)
Aircraft: SOCATA TBM-900
(TBM9)
More flights by this aircraft type
Origin: KDUG Bisbee Douglas Intl
United States
Destination: KDVT Phoenix Deer Valley
United States
More flights between these airports :: More routes between these airports
Route:
File this flight plan on PilotEdge
Remarks:
Altitude:
(Current/Filed)
16,500ft
Speed:
(Current/Filed)
280kts
Departed: 12-Oct-20 02:19 PM
Arrived: 12-Oct-20 03:07 PM
Distance/Time
Traveled:
183nm/0:48
Distance/Time
To Go:
Arrived

Flight Plot

Page will automatically refresh every two minutes.

Flight plan parsing failed; only flown route is shown


Map Options




Map Legend


Flown Route
Filed Route
Departure Airport
Arrival Airport
Navaid (VOR, NDB)
Fix

Horizontal Profiles

Position Reports

Time Latitude Longitude Heading Altitude Ground
Speed
12-Oct-20 14:13 31.457553 -109.597300 225 4097ft 0kts
12-Oct-20 14:15 31.457553 -109.597300 225 4097ft 0kts
12-Oct-20 14:15 31.457359 -109.597168 130 4096ft 7kts
12-Oct-20 14:17 31.454025 -109.599990 253 4090ft 15kts
12-Oct-20 14:17 31.454016 -109.603768 314 4089ft 4kts
12-Oct-20 14:18 31.460832 -109.604468 359 4100ft 84kts
12-Oct-20 14:19 31.491118 -109.623685 289 5442ft 150kts
12-Oct-20 14:20 31.505255 -109.671383 288 7410ft 150kts
12-Oct-20 14:21 31.519914 -109.718742 289 9204ft 156kts
12-Oct-20 14:22 31.535459 -109.766680 289 11565ft 156kts
12-Oct-20 14:23 31.567563 -109.803172 315 13680ft 161kts
12-Oct-20 14:24 31.602420 -109.839494 315 15630ft 164kts
12-Oct-20 14:25 31.641388 -109.880150 316 16535ft 216kts
12-Oct-20 14:26 31.692943 -109.933948 316 16491ft 253kts
12-Oct-20 14:27 31.749866 -109.993408 316 16486ft 272kts
12-Oct-20 14:28 31.808279 -110.054519 316 16483ft 278kts
12-Oct-20 14:29 31.867421 -110.116512 316 16482ft 280kts
12-Oct-20 14:30 31.926640 -110.178702 316 16481ft 280kts
12-Oct-20 14:31 31.986024 -110.241175 316 16481ft 281kts
12-Oct-20 14:32 32.046035 -110.304426 316 16463ft 281kts
12-Oct-20 14:33 32.106245 -110.368005 316 16566ft 278kts
12-Oct-20 14:34 32.165462 -110.430647 316 16502ft 281kts
12-Oct-20 14:35 32.224845 -110.493585 316 16499ft 280kts
12-Oct-20 14:36 32.284707 -110.557148 316 16499ft 280kts
12-Oct-20 14:37 32.344283 -110.620524 316 16499ft 280kts
12-Oct-20 14:38 32.404109 -110.684282 316 16500ft 281kts
12-Oct-20 14:39 32.464148 -110.748388 316 16500ft 281kts
12-Oct-20 14:40 32.525509 -110.814031 316 16494ft 281kts
12-Oct-20 14:41 32.586858 -110.879782 316 16478ft 281kts
12-Oct-20 14:42 32.647388 -110.944780 316 16463ft 281kts
12-Oct-20 14:43 32.707454 -111.009405 315 16463ft 281kts
12-Oct-20 14:44 32.767470 -111.074099 315 16463ft 282kts
12-Oct-20 14:45 32.827648 -111.139096 315 16463ft 282kts
12-Oct-20 14:46 32.888527 -111.205011 315 15515ft 302kts
12-Oct-20 14:47 32.954156 -111.276180 316 13468ft 314kts
12-Oct-20 14:48 33.020096 -111.347807 316 11417ft 309kts
12-Oct-20 14:49 33.085263 -111.413409 342 9283ft 290kts
12-Oct-20 14:50 33.162551 -111.417807 358 8494ft 254kts
12-Oct-20 14:51 33.231062 -111.435006 335 7340ft 242kts
12-Oct-20 14:52 33.289196 -111.467663 335 4936ft 220kts
12-Oct-20 14:53 33.343952 -111.497746 335 4496ft 211kts
12-Oct-20 14:54 33.397846 -111.529190 330 4491ft 211kts
12-Oct-20 14:55 33.450778 -111.563637 330 4483ft 213kts
12-Oct-20 14:56 33.502410 -111.601835 325 4481ft 214kts
12-Oct-20 14:57 33.553231 -111.641648 325 4482ft 215kts
12-Oct-20 14:58 33.601741 -111.685485 314 4489ft 213kts
12-Oct-20 14:59 33.645536 -111.735597 314 4491ft 213kts
12-Oct-20 15:00 33.661163 -111.803633 276 4497ft 211kts
12-Oct-20 15:01 33.682922 -111.868490 305 4502ft 211kts
12-Oct-20 15:02 33.697243 -111.932599 256 4112ft 202kts
12-Oct-20 15:03 33.693156 -111.988279 265 2720ft 111kts
12-Oct-20 15:04 33.691151 -112.023465 266 2374ft 98kts
12-Oct-20 15:05 33.689204 -112.055917 263 1759ft 89kts
12-Oct-20 15:06 33.687738 -112.080908 266 1463ft 29kts
12-Oct-20 15:07 33.686759 -112.083534 266 1459ft 14kts
12-Oct-20 15:08 33.685043 -112.084832 180 1456ft 0kts
12-Oct-20 15:09 33.685043 -112.084832 180 1456ft 0kts
12-Oct-20 15:10 33.685043 -112.084832 180 1456ft 0kts
12-Oct-20 15:11 33.685043 -112.084832 180 1456ft 0kts
12-Oct-20 15:12 33.685043 -112.084832 180 1456ft 0kts
12-Oct-20 15:13 33.685043 -112.084832 180 1456ft 0kts
12-Oct-20 15:14 33.685043 -112.084832 180 1456ft 0kts
12-Oct-20 15:15 33.685043 -112.084832 180 1456ft 0kts
12-Oct-20 15:16 33.685043 -112.084832 180 1456ft 0kts
12-Oct-20 15:17 33.685043 -112.084832 180 1456ft 0kts
12-Oct-20 15:18 33.685043 -112.084832 180 1456ft 0kts
12-Oct-20 15:19 33.685043 -112.084832 180 1456ft 0kts
12-Oct-20 15:20 33.685043 -112.084832 180 1456ft 0kts

Navigation Log

Ident Type
Flight plan parsing failed, navigation log unavailable